createdAt,value
2023-01-28T00:02:03.865Z,0.00
2023-01-28T00:07:03.794Z,0.00
2023-01-28T00:12:03.755Z,0.00
2023-01-28T00:17:03.925Z,0.00
2023-01-28T00:22:03.616Z,0.00
2023-01-28T00:27:03.823Z,0.00
2023-01-28T00:32:03.510Z,0.00
2023-01-28T00:37:03.445Z,0.00
2023-01-28T00:42:03.391Z,0.00
2023-01-28T00:47:03.277Z,0.00
2023-01-28T00:52:03.250Z,0.00
2023-01-28T00:57:03.169Z,0.00
2023-01-28T01:02:03.115Z,0.00
2023-01-28T01:07:23.800Z,0.00
2023-01-28T01:12:16.213Z,0.00
2023-01-28T01:17:16.174Z,0.00
2023-01-28T01:22:16.084Z,0.00
2023-01-28T01:27:16.046Z,0.00
2023-01-28T01:32:15.965Z,0.00
2023-01-28T01:37:15.884Z,0.00
2023-01-28T01:42:15.818Z,0.00
2023-01-28T01:47:15.765Z,0.00
2023-01-28T01:52:15.683Z,0.00
2023-01-28T01:57:15.653Z,0.00
2023-01-28T02:02:15.640Z,0.00
2023-01-28T02:07:15.558Z,0.00
2023-01-28T02:12:15.432Z,0.00
2023-01-28T02:17:15.378Z,0.00
2023-01-28T02:22:15.298Z,0.00
2023-01-28T02:27:15.299Z,0.00
2023-01-28T02:32:15.179Z,0.00
2023-01-28T02:37:15.143Z,0.00
2023-01-28T02:42:15.054Z,0.00
2023-01-28T02:47:15.024Z,0.00
2023-01-28T02:52:14.921Z,0.00
2023-01-28T02:57:14.877Z,0.00
2023-01-28T03:02:14.880Z,0.00
2023-01-28T03:07:14.750Z,0.00
2023-01-28T03:12:14.684Z,0.00
2023-01-28T03:17:14.679Z,0.00
2023-01-28T03:22:14.517Z,0.00
2023-01-28T03:27:14.535Z,0.00
2023-01-28T03:32:14.490Z,0.00
2023-01-28T03:37:14.371Z,0.00
2023-01-28T03:42:14.299Z,0.00
2023-01-28T03:47:14.238Z,0.00
2023-01-28T03:52:14.220Z,0.00
2023-01-28T03:57:14.101Z,0.00
2023-01-28T04:02:14.016Z,0.00
2023-01-28T04:07:13.974Z,0.00
2023-01-28T04:12:13.892Z,0.00
2023-01-28T04:17:13.851Z,0.00
2023-01-28T04:22:13.772Z,0.00
2023-01-28T04:27:13.707Z,0.00
2023-01-28T04:32:13.647Z,0.00
2023-01-28T04:37:13.582Z,0.00
2023-01-28T04:42:13.521Z,0.00
2023-01-28T04:47:13.458Z,0.00
2023-01-28T04:52:13.415Z,0.00
2023-01-28T04:57:13.336Z,0.00
2023-01-28T05:02:13.330Z,0.00
2023-01-28T05:07:13.208Z,0.00
2023-01-28T05:12:13.123Z,0.00
2023-01-28T05:17:24.100Z,0.00
2023-01-28T05:22:16.454Z,0.00
2023-01-28T05:27:16.395Z,0.00
2023-01-28T05:32:16.363Z,0.00
2023-01-28T05:37:16.245Z,0.00
2023-01-28T05:42:16.197Z,0.00
2023-01-28T05:47:16.170Z,0.00
2023-01-28T05:52:16.074Z,0.00
2023-01-28T05:57:15.998Z,0.00
2023-01-28T06:02:15.991Z,0.00
2023-01-28T06:07:15.879Z,0.00
2023-01-28T06:12:15.828Z,0.00
2023-01-28T06:17:18.219Z,0.00
2023-01-28T06:22:15.677Z,0.00
2023-01-28T06:27:15.617Z,0.00
2023-01-28T06:32:15.594Z,0.00
2023-01-28T06:37:15.491Z,0.00
2023-01-28T06:42:15.428Z,0.00
2023-01-28T06:47:15.381Z,0.00
2023-01-28T06:52:15.294Z,4.00
2023-01-28T06:57:15.220Z,4.00
2023-01-28T07:02:15.190Z,8.00
2023-01-28T07:07:15.125Z,16.00
2023-01-28T07:12:15.098Z,36.00
2023-01-28T07:17:15.169Z,60.00
2023-01-28T07:22:18.364Z,84.00
2023-01-28T07:27:14.825Z,112.00
2023-01-28T07:32:14.795Z,148.00
2023-01-28T07:37:14.819Z,184.00
2023-01-28T07:42:14.668Z,244.00
2023-01-28T07:47:14.655Z,332.00
2023-01-28T07:52:14.524Z,456.00
2023-01-28T07:57:14.449Z,668.00
2023-01-28T08:02:14.406Z,744.00
2023-01-28T08:07:14.331Z,728.00
2023-01-28T08:12:14.279Z,868.00
2023-01-28T08:17:14.205Z,796.00
2023-01-28T08:22:14.149Z,668.00
2023-01-28T08:27:14.069Z,492.00
2023-01-28T08:32:14.024Z,436.00
2023-01-28T08:37:13.930Z,384.00
2023-01-28T08:42:13.879Z,728.00
2023-01-28T08:47:13.817Z,980.00
2023-01-28T08:52:13.760Z,1020.00
2023-01-28T08:57:13.692Z,1068.00
2023-01-28T09:02:29.256Z,1088.00
2023-01-28T09:07:14.562Z,956.00
2023-01-28T09:12:13.489Z,708.00
2023-01-28T09:17:13.440Z,772.00
2023-01-28T09:22:13.389Z,812.00
2023-01-28T09:27:13.304Z,1008.00
2023-01-28T09:32:13.255Z,2016.00
2023-01-28T09:37:13.173Z,2176.00
2023-01-28T09:42:13.151Z,2276.00
2023-01-28T09:47:13.053Z,2240.00
2023-01-28T09:52:13.011Z,2344.00
2023-01-28T09:57:12.937Z,2380.00
2023-01-28T10:02:12.874Z,2352.00
2023-01-28T10:07:12.797Z,2064.00
2023-01-28T10:12:12.713Z,1888.00
2023-01-28T10:17:12.649Z,1864.00
2023-01-28T10:22:12.606Z,1988.00
2023-01-28T10:27:12.523Z,1856.00
2023-01-28T10:32:12.466Z,2416.00
2023-01-28T10:37:12.398Z,2724.00
2023-01-28T10:42:12.343Z,2312.00
2023-01-28T10:47:12.253Z,2016.00
2023-01-28T10:52:12.209Z,1880.00
2023-01-28T10:57:12.131Z,1736.00
2023-01-28T11:02:12.092Z,1912.00
2023-01-28T11:07:11.989Z,2072.00
2023-01-28T11:12:11.954Z,1856.00
2023-01-28T11:17:11.941Z,1784.00
2023-01-28T11:22:11.897Z,1532.00
2023-01-28T11:27:11.718Z,1792.00
2023-01-28T11:32:11.669Z,1868.00
2023-01-28T11:37:11.596Z,1908.00
2023-01-28T11:42:11.562Z,1668.00
2023-01-28T11:47:11.481Z,1304.00
2023-01-28T11:52:11.430Z,1424.00
2023-01-28T11:57:11.340Z,1844.00
2023-01-28T12:02:11.287Z,1292.00
2023-01-28T12:07:11.211Z,1084.00
2023-01-28T12:12:11.133Z,1008.00
2023-01-28T12:17:11.067Z,1000.00
2023-01-28T12:22:11.019Z,880.00
2023-01-28T12:27:10.960Z,836.00
2023-01-28T12:32:10.895Z,1052.00
2023-01-28T12:37:10.812Z,1144.00
2023-01-28T12:42:10.767Z,1128.00
2023-01-28T12:47:10.674Z,1136.00
2023-01-28T12:52:10.647Z,1168.00
2023-01-28T12:57:10.644Z,1268.00
2023-01-28T13:02:10.577Z,1328.00
2023-01-28T13:07:10.449Z,1204.00
2023-01-28T13:12:12.113Z,1188.00
2023-01-28T13:17:10.375Z,1212.00
2023-01-28T13:22:10.247Z,1156.00
2023-01-28T13:27:10.189Z,1120.00
2023-01-28T13:32:10.241Z,1072.00
2023-01-28T13:37:10.058Z,1304.00
2023-01-28T13:42:09.989Z,1480.00
2023-01-28T13:47:09.929Z,1560.00
2023-01-28T13:52:09.853Z,1748.00
2023-01-28T13:57:09.978Z,1708.00
2023-01-28T14:02:09.730Z,1440.00
2023-01-28T14:07:09.669Z,1312.00
2023-01-28T14:12:09.611Z,1156.00
2023-01-28T14:17:09.525Z,1220.00
2023-01-28T14:22:09.474Z,1212.00
2023-01-28T14:27:09.427Z,1348.00
2023-01-28T14:32:10.946Z,1232.00
2023-01-28T14:37:09.305Z,1160.00
2023-01-28T14:42:09.222Z,1080.00
2023-01-28T14:47:09.164Z,1560.00
2023-01-28T14:52:09.107Z,1432.00
2023-01-28T14:57:09.044Z,1172.00
2023-01-28T15:02:08.965Z,1216.00
2023-01-28T15:07:08.916Z,1136.00
2023-01-28T15:12:08.831Z,1028.00
2023-01-28T15:17:08.825Z,952.00
2023-01-28T15:22:08.693Z,652.00
2023-01-28T15:27:08.653Z,540.00
2023-01-28T15:32:08.566Z,496.00
2023-01-28T15:37:08.523Z,448.00
2023-01-28T15:42:08.453Z,436.00
2023-01-28T15:47:08.394Z,400.00
2023-01-28T15:52:08.352Z,280.00
2023-01-28T15:57:08.265Z,228.00
2023-01-28T16:02:08.240Z,152.00
2023-01-28T16:07:08.137Z,116.00
2023-01-28T16:12:08.075Z,92.00
2023-01-28T16:17:08.049Z,60.00
2023-01-28T16:22:07.934Z,36.00
2023-01-28T16:27:07.847Z,16.00
2023-01-28T16:32:07.885Z,8.00
2023-01-28T16:37:07.843Z,4.00
2023-01-28T16:42:07.650Z,0.00
2023-01-28T16:47:07.630Z,0.00
2023-01-28T16:52:07.576Z,0.00
2023-01-28T16:57:07.492Z,0.00
2023-01-28T17:02:07.420Z,0.00
2023-01-28T17:07:07.371Z,0.00
2023-01-28T17:12:07.300Z,0.00
2023-01-28T17:17:07.268Z,0.00
2023-01-28T17:22:07.170Z,0.00
2023-01-28T17:27:07.131Z,0.00
2023-01-28T17:32:07.041Z,0.00
2023-01-28T17:37:06.985Z,0.00
2023-01-28T17:42:06.940Z,0.00
2023-01-28T17:47:06.886Z,0.00
2023-01-28T17:52:06.774Z,0.00
2023-01-28T17:57:06.733Z,0.00
2023-01-28T18:02:06.701Z,0.00
2023-01-28T18:07:06.613Z,0.00
2023-01-28T18:12:06.543Z,0.00
2023-01-28T18:17:06.491Z,0.00
2023-01-28T18:22:06.407Z,0.00
2023-01-28T18:27:06.323Z,0.00
2023-01-28T18:32:06.305Z,0.00
2023-01-28T18:37:06.243Z,0.00
2023-01-28T18:42:06.120Z,0.00
2023-01-28T18:47:06.150Z,0.00
2023-01-28T18:52:06.024Z,0.00
2023-01-28T18:57:05.956Z,0.00
2023-01-28T19:02:05.914Z,0.00
2023-01-28T19:07:08.016Z,0.00
2023-01-28T19:12:05.814Z,0.00
2023-01-28T19:17:05.741Z,0.00
2023-01-28T19:22:05.675Z,0.00
2023-01-28T19:27:05.580Z,0.00
2023-01-28T19:32:06.318Z,0.00
2023-01-28T19:37:05.480Z,0.00
2023-01-28T19:42:05.400Z,0.00
2023-01-28T19:47:05.336Z,0.00
2023-01-28T19:52:05.246Z,0.00
2023-01-28T19:57:05.211Z,0.00
2023-01-28T20:02:05.130Z,0.00
2023-01-28T20:07:05.114Z,0.00
2023-01-28T20:12:04.975Z,0.00
2023-01-28T20:17:05.000Z,0.00
2023-01-28T20:22:04.866Z,0.00
2023-01-28T20:27:04.838Z,0.00
2023-01-28T20:32:16.192Z,0.00
2023-01-28T20:37:05.785Z,0.00
2023-01-28T20:42:04.603Z,0.00
2023-01-28T20:47:04.641Z,0.00
2023-01-28T20:52:04.590Z,0.00
2023-01-28T20:57:04.424Z,0.00
2023-01-28T21:02:04.467Z,0.00
2023-01-28T21:07:04.306Z,0.00
2023-01-28T21:12:04.322Z,0.00
2023-01-28T21:17:04.660Z,0.00
2023-01-28T21:22:04.102Z,0.00
2023-01-28T21:27:04.082Z,0.00
2023-01-28T21:32:04.037Z,0.00
2023-01-28T21:37:03.925Z,0.00
2023-01-28T21:42:03.942Z,0.00
2023-01-28T21:47:03.804Z,0.00
2023-01-28T21:52:03.792Z,0.00
2023-01-28T21:57:03.739Z,0.00
2023-01-28T22:02:03.584Z,0.00
2023-01-28T22:07:03.541Z,0.00
2023-01-28T22:12:03.424Z,0.00
2023-01-28T22:17:03.447Z,0.00
2023-01-28T22:22:03.341Z,0.00
2023-01-28T22:27:03.312Z,0.00
2023-01-28T22:32:03.232Z,0.00
2023-01-28T22:37:03.148Z,0.00
2023-01-28T22:42:03.072Z,0.00
2023-01-28T22:47:03.024Z,0.00
2023-01-28T22:52:02.950Z,0.00
2023-01-28T22:57:02.919Z,0.00
2023-01-28T23:02:02.852Z,0.00
2023-01-28T23:07:02.768Z,0.00
2023-01-28T23:12:02.687Z,0.00
2023-01-28T23:17:02.702Z,0.00
2023-01-28T23:22:02.600Z,0.00
2023-01-28T23:27:02.490Z,0.00
2023-01-28T23:32:02.453Z,0.00
2023-01-28T23:37:02.430Z,0.00
2023-01-28T23:42:02.391Z,0.00
2023-01-28T23:47:02.344Z,0.00
2023-01-28T23:52:02.187Z,0.00
2023-01-28T23:57:02.153Z,0.00
